sensor_id;sensor_type;location;lat;lon;timestamp;P1;durP1;ratioP1;P2;durP2;ratioP2
52878;SDS011;38747;53.140;6.498;2022-11-14T00:02:12;30.17;;;12.73;;
52878;SDS011;38747;53.140;6.498;2022-11-14T00:04:41;24.38;;;11.13;;
52878;SDS011;38747;53.140;6.498;2022-11-14T00:07:09;27.63;;;12.60;;
52878;SDS011;38747;53.140;6.498;2022-11-14T00:09:35;27.55;;;11.13;;
52878;SDS011;38747;53.140;6.498;2022-11-14T00:12:03;27.88;;;12.80;;
52878;SDS011;38747;53.140;6.498;2022-11-14T00:14:28;27.37;;;11.70;;
52878;SDS011;38747;53.140;6.498;2022-11-14T00:16:54;29.00;;;12.07;;
52878;SDS011;38747;53.140;6.498;2022-11-14T00:19:20;30.43;;;12.03;;
52878;SDS011;38747;53.140;6.498;2022-11-14T00:21:45;26.02;;;11.88;;
52878;SDS011;38747;53.140;6.498;2022-11-14T00:24:11;28.57;;;12.30;;
52878;SDS011;38747;53.140;6.498;2022-11-14T00:26:37;26.15;;;11.80;;
52878;SDS011;38747;53.140;6.498;2022-11-14T00:29:02;27.07;;;12.20;;
52878;SDS011;38747;53.140;6.498;2022-11-14T00:31:28;27.05;;;12.85;;
52878;SDS011;38747;53.140;6.498;2022-11-14T00:33:54;26.93;;;12.30;;
52878;SDS011;38747;53.140;6.498;2022-11-14T00:36:19;28.67;;;12.52;;
52878;SDS011;38747;53.140;6.498;2022-11-14T00:38:45;26.83;;;12.30;;
52878;SDS011;38747;53.140;6.498;2022-11-14T00:41:11;28.67;;;13.10;;
52878;SDS011;38747;53.140;6.498;2022-11-14T00:43:36;29.50;;;12.17;;
52878;SDS011;38747;53.140;6.498;2022-11-14T00:46:02;26.70;;;12.13;;
52878;SDS011;38747;53.140;6.498;2022-11-14T00:48:27;26.27;;;12.05;;
52878;SDS011;38747;53.140;6.498;2022-11-14T00:50:53;25.27;;;12.23;;
52878;SDS011;38747;53.140;6.498;2022-11-14T00:53:19;27.27;;;12.25;;
52878;SDS011;38747;53.140;6.498;2022-11-14T00:55:44;29.93;;;13.60;;
52878;SDS011;38747;53.140;6.498;2022-11-14T00:58:10;28.50;;;13.32;;
52878;SDS011;38747;53.140;6.498;2022-11-14T01:00:36;28.40;;;13.07;;
52878;SDS011;38747;53.140;6.498;2022-11-14T01:03:02;29.05;;;13.32;;
52878;SDS011;38747;53.140;6.498;2022-11-14T01:05:27;32.50;;;14.13;;
52878;SDS011;38747;53.140;6.498;2022-11-14T01:07:53;29.98;;;13.75;;
52878;SDS011;38747;53.140;6.498;2022-11-14T01:10:19;28.53;;;13.60;;
52878;SDS011;38747;53.140;6.498;2022-11-14T01:12:45;29.17;;;13.15;;
52878;SDS011;38747;53.140;6.498;2022-11-14T01:15:10;31.17;;;14.03;;
52878;SDS011;38747;53.140;6.498;2022-11-14T01:17:36;32.50;;;13.97;;
52878;SDS011;38747;53.140;6.498;2022-11-14T01:20:02;32.95;;;15.48;;
52878;SDS011;38747;53.140;6.498;2022-11-14T01:22:29;36.03;;;15.70;;
52878;SDS011;38747;53.140;6.498;2022-11-14T01:24:55;36.70;;;16.73;;
52878;SDS011;38747;53.140;6.498;2022-11-14T01:27:23;37.60;;;16.73;;
52878;SDS011;38747;53.140;6.498;2022-11-14T01:29:49;38.75;;;17.80;;
52878;SDS011;38747;53.140;6.498;2022-11-14T01:32:15;37.70;;;17.17;;
52878;SDS011;38747;53.140;6.498;2022-11-14T01:34:40;38.92;;;17.77;;
52878;SDS011;38747;53.140;6.498;2022-11-14T01:37:06;38.27;;;17.10;;
52878;SDS011;38747;53.140;6.498;2022-11-14T01:39:31;41.10;;;18.48;;
52878;SDS011;38747;53.140;6.498;2022-11-14T01:41:57;41.00;;;19.53;;
52878;SDS011;38747;53.140;6.498;2022-11-14T01:47:09;40.30;;;17.57;;
52878;SDS011;38747;53.140;6.498;2022-11-14T01:49:40;44.15;;;20.17;;
52878;SDS011;38747;53.140;6.498;2022-11-14T01:52:09;43.80;;;19.73;;
52878;SDS011;38747;53.140;6.498;2022-11-14T01:54:41;41.35;;;20.27;;
52878;SDS011;38747;53.140;6.498;2022-11-14T01:57:11;41.97;;;20.08;;
52878;SDS011;38747;53.140;6.498;2022-11-14T01:59:40;44.37;;;20.03;;
52878;SDS011;38747;53.140;6.498;2022-11-14T02:02:14;47.42;;;21.55;;
52878;SDS011;38747;53.140;6.498;2022-11-14T02:04:44;46.88;;;23.10;;
52878;SDS011;38747;53.140;6.498;2022-11-14T02:07:21;41.88;;;20.45;;
52878;SDS011;38747;53.140;6.498;2022-11-14T02:09:49;47.45;;;22.02;;
52878;SDS011;38747;53.140;6.498;2022-11-14T02:12:15;49.17;;;22.07;;
52878;SDS011;38747;53.140;6.498;2022-11-14T02:14:43;44.78;;;20.88;;
52878;SDS011;38747;53.140;6.498;2022-11-14T02:17:11;52.03;;;23.15;;
52878;SDS011;38747;53.140;6.498;2022-11-14T02:19:54;46.92;;;22.38;;
52878;SDS011;38747;53.140;6.498;2022-11-14T02:22:40;48.30;;;22.00;;
52878;SDS011;38747;53.140;6.498;2022-11-14T02:25:07;43.55;;;21.15;;
52878;SDS011;38747;53.140;6.498;2022-11-14T02:27:35;54.75;;;22.48;;
52878;SDS011;38747;53.140;6.498;2022-11-14T02:30:03;48.50;;;22.52;;
52878;SDS011;38747;53.140;6.498;2022-11-14T02:32:39;54.60;;;23.27;;
52878;SDS011;38747;53.140;6.498;2022-11-14T02:35:05;46.10;;;21.13;;
52878;SDS011;38747;53.140;6.498;2022-11-14T02:37:31;50.78;;;21.52;;
52878;SDS011;38747;53.140;6.498;2022-11-14T02:39:56;47.07;;;21.43;;
52878;SDS011;38747;53.140;6.498;2022-11-14T02:42:22;49.30;;;21.57;;
52878;SDS011;38747;53.140;6.498;2022-11-14T02:44:48;49.55;;;21.92;;
52878;SDS011;38747;53.140;6.498;2022-11-14T02:47:13;50.27;;;21.43;;
52878;SDS011;38747;53.140;6.498;2022-11-14T02:49:39;45.30;;;21.05;;
52878;SDS011;38747;53.140;6.498;2022-11-14T02:52:04;46.23;;;21.63;;
52878;SDS011;38747;53.140;6.498;2022-11-14T02:54:30;50.10;;;21.77;;
52878;SDS011;38747;53.140;6.498;2022-11-14T02:56:56;45.47;;;20.33;;
52878;SDS011;38747;53.140;6.498;2022-11-14T02:59:21;49.97;;;22.23;;
52878;SDS011;38747;53.140;6.498;2022-11-14T03:01:47;45.70;;;20.20;;
52878;SDS011;38747;53.140;6.498;2022-11-14T03:04:12;47.30;;;20.20;;
52878;SDS011;38747;53.140;6.498;2022-11-14T03:06:38;47.28;;;20.90;;
52878;SDS011;38747;53.140;6.498;2022-11-14T03:09:04;48.80;;;21.50;;
52878;SDS011;38747;53.140;6.498;2022-11-14T03:11:29;46.95;;;20.60;;
52878;SDS011;38747;53.140;6.498;2022-11-14T03:13:55;45.40;;;21.17;;
52878;SDS011;38747;53.140;6.498;2022-11-14T03:16:21;47.80;;;20.98;;
52878;SDS011;38747;53.140;6.498;2022-11-14T03:18:47;47.83;;;20.60;;
52878;SDS011;38747;53.140;6.498;2022-11-14T03:21:19;49.40;;;21.35;;
52878;SDS011;38747;53.140;6.498;2022-11-14T03:23:46;50.65;;;21.88;;
52878;SDS011;38747;53.140;6.498;2022-11-14T03:26:12;48.53;;;21.50;;
52878;SDS011;38747;53.140;6.498;2022-11-14T03:28:39;44.10;;;20.30;;
52878;SDS011;38747;53.140;6.498;2022-11-14T03:31:06;49.13;;;22.10;;
52878;SDS011;38747;53.140;6.498;2022-11-14T03:33:33;46.13;;;20.23;;
52878;SDS011;38747;53.140;6.498;2022-11-14T03:35:59;49.88;;;22.38;;
52878;SDS011;38747;53.140;6.498;2022-11-14T03:38:25;45.83;;;20.52;;
52878;SDS011;38747;53.140;6.498;2022-11-14T03:40:51;50.43;;;22.80;;
52878;SDS011;38747;53.140;6.498;2022-11-14T03:43:18;42.55;;;20.13;;
52878;SDS011;38747;53.140;6.498;2022-11-14T03:45:45;47.00;;;20.30;;
52878;SDS011;38747;53.140;6.498;2022-11-14T03:48:11;46.70;;;20.75;;
52878;SDS011;38747;53.140;6.498;2022-11-14T03:50:37;46.17;;;21.67;;
52878;SDS011;38747;53.140;6.498;2022-11-14T03:53:03;45.00;;;20.40;;
52878;SDS011;38747;53.140;6.498;2022-11-14T03:55:28;44.90;;;21.23;;
52878;SDS011;38747;53.140;6.498;2022-11-14T03:57:54;45.47;;;20.33;;
52878;SDS011;38747;53.140;6.498;2022-11-14T04:00:20;42.30;;;19.33;;
52878;SDS011;38747;53.140;6.498;2022-11-14T04:02:45;46.30;;;20.80;;
52878;SDS011;38747;53.140;6.498;2022-11-14T04:05:12;50.28;;;21.38;;
52878;SDS011;38747;53.140;6.498;2022-11-14T04:07:38;45.67;;;20.98;;
52878;SDS011;38747;53.140;6.498;2022-11-14T04:10:03;42.07;;;19.53;;
52878;SDS011;38747;53.140;6.498;2022-11-14T04:12:30;43.83;;;19.90;;
52878;SDS011;38747;53.140;6.498;2022-11-14T04:14:56;43.77;;;20.07;;
52878;SDS011;38747;53.140;6.498;2022-11-14T04:17:22;44.08;;;20.63;;
52878;SDS011;38747;53.140;6.498;2022-11-14T04:19:47;42.50;;;19.90;;
52878;SDS011;38747;53.140;6.498;2022-11-14T04:22:14;42.20;;;20.83;;
52878;SDS011;38747;53.140;6.498;2022-11-14T04:24:39;43.33;;;21.23;;
52878;SDS011;38747;53.140;6.498;2022-11-14T04:27:05;44.30;;;20.23;;
52878;SDS011;38747;53.140;6.498;2022-11-14T04:29:31;44.87;;;20.50;;
52878;SDS011;38747;53.140;6.498;2022-11-14T04:31:56;43.30;;;19.83;;
52878;SDS011;38747;53.140;6.498;2022-11-14T04:34:22;47.10;;;20.97;;
52878;SDS011;38747;53.140;6.498;2022-11-14T04:36:47;42.38;;;20.55;;
52878;SDS011;38747;53.140;6.498;2022-11-14T04:39:15;42.70;;;19.97;;
52878;SDS011;38747;53.140;6.498;2022-11-14T04:41:42;43.85;;;20.90;;
52878;SDS011;38747;53.140;6.498;2022-11-14T04:44:07;43.25;;;19.70;;
52878;SDS011;38747;53.140;6.498;2022-11-14T04:46:33;43.13;;;20.70;;
52878;SDS011;38747;53.140;6.498;2022-11-14T04:48:59;43.30;;;20.83;;
52878;SDS011;38747;53.140;6.498;2022-11-14T04:51:24;40.70;;;19.07;;
52878;SDS011;38747;53.140;6.498;2022-11-14T04:53:50;43.38;;;20.60;;
52878;SDS011;38747;53.140;6.498;2022-11-14T04:56:16;43.13;;;19.93;;
52878;SDS011;38747;53.140;6.498;2022-11-14T04:58:41;42.63;;;20.40;;
52878;SDS011;38747;53.140;6.498;2022-11-14T05:01:07;42.53;;;20.70;;
52878;SDS011;38747;53.140;6.498;2022-11-14T05:03:34;44.53;;;20.40;;
52878;SDS011;38747;53.140;6.498;2022-11-14T05:06:00;42.20;;;20.47;;
52878;SDS011;38747;53.140;6.498;2022-11-14T05:08:26;43.25;;;19.70;;
52878;SDS011;38747;53.140;6.498;2022-11-14T05:10:51;42.85;;;19.73;;
52878;SDS011;38747;53.140;6.498;2022-11-14T05:13:17;41.43;;;19.73;;
52878;SDS011;38747;53.140;6.498;2022-11-14T05:15:42;42.83;;;19.63;;
52878;SDS011;38747;53.140;6.498;2022-11-14T05:18:08;40.67;;;19.60;;
52878;SDS011;38747;53.140;6.498;2022-11-14T05:20:34;45.87;;;20.83;;
52878;SDS011;38747;53.140;6.498;2022-11-14T05:22:59;43.60;;;21.38;;
52878;SDS011;38747;53.140;6.498;2022-11-14T05:25:25;46.40;;;19.83;;
52878;SDS011;38747;53.140;6.498;2022-11-14T05:27:51;43.30;;;20.45;;
52878;SDS011;38747;53.140;6.498;2022-11-14T05:30:16;41.80;;;19.97;;
52878;SDS011;38747;53.140;6.498;2022-11-14T05:32:42;42.63;;;20.75;;
52878;SDS011;38747;53.140;6.498;2022-11-14T05:35:08;44.08;;;20.50;;
52878;SDS011;38747;53.140;6.498;2022-11-14T05:37:34;43.45;;;20.95;;
52878;SDS011;38747;53.140;6.498;2022-11-14T05:40:01;42.93;;;21.20;;
52878;SDS011;38747;53.140;6.498;2022-11-14T05:42:27;42.58;;;19.98;;
52878;SDS011;38747;53.140;6.498;2022-11-14T05:44:53;45.08;;;20.50;;
52878;SDS011;38747;53.140;6.498;2022-11-14T05:47:18;42.20;;;19.83;;
52878;SDS011;38747;53.140;6.498;2022-11-14T05:49:44;45.73;;;21.23;;
52878;SDS011;38747;53.140;6.498;2022-11-14T05:52:10;46.08;;;21.05;;
52878;SDS011;38747;53.140;6.498;2022-11-14T05:54:35;43.35;;;21.02;;
52878;SDS011;38747;53.140;6.498;2022-11-14T05:57:01;45.20;;;21.07;;
52878;SDS011;38747;53.140;6.498;2022-11-14T05:59:27;43.38;;;21.42;;
52878;SDS011;38747;53.140;6.498;2022-11-14T06:01:53;47.57;;;21.57;;
52878;SDS011;38747;53.140;6.498;2022-11-14T06:04:19;44.90;;;21.17;;
52878;SDS011;38747;53.140;6.498;2022-11-14T06:06:44;46.00;;;20.77;;
52878;SDS011;38747;53.140;6.498;2022-11-14T06:09:10;44.70;;;20.27;;
52878;SDS011;38747;53.140;6.498;2022-11-14T06:11:35;42.87;;;20.20;;
52878;SDS011;38747;53.140;6.498;2022-11-14T06:14:01;47.85;;;21.85;;
52878;SDS011;38747;53.140;6.498;2022-11-14T06:16:28;43.23;;;21.03;;
52878;SDS011;38747;53.140;6.498;2022-11-14T06:18:54;46.25;;;20.70;;
52878;SDS011;38747;53.140;6.498;2022-11-14T06:21:20;46.35;;;22.25;;
52878;SDS011;38747;53.140;6.498;2022-11-14T06:23:47;44.57;;;21.27;;
52878;SDS011;38747;53.140;6.498;2022-11-14T06:26:15;44.80;;;21.35;;
52878;SDS011;38747;53.140;6.498;2022-11-14T06:28:49;46.47;;;21.63;;
52878;SDS011;38747;53.140;6.498;2022-11-14T06:31:16;44.30;;;21.45;;
52878;SDS011;38747;53.140;6.498;2022-11-14T06:33:42;41.08;;;19.92;;
52878;SDS011;38747;53.140;6.498;2022-11-14T06:36:08;46.67;;;20.53;;
52878;SDS011;38747;53.140;6.498;2022-11-14T06:38:35;43.65;;;19.70;;
52878;SDS011;38747;53.140;6.498;2022-11-14T06:43:35;44.40;;;20.80;;
52878;SDS011;38747;53.140;6.498;2022-11-14T06:46:02;47.83;;;21.50;;
52878;SDS011;38747;53.140;6.498;2022-11-14T06:48:29;44.55;;;21.08;;
52878;SDS011;38747;53.140;6.498;2022-11-14T06:50:55;47.05;;;21.42;;
52878;SDS011;38747;53.140;6.498;2022-11-14T06:53:22;45.10;;;19.88;;
52878;SDS011;38747;53.140;6.498;2022-11-14T06:55:58;46.13;;;20.80;;
52878;SDS011;38747;53.140;6.498;2022-11-14T06:58:26;44.20;;;20.63;;
52878;SDS011;38747;53.140;6.498;2022-11-14T07:00:52;46.60;;;20.50;;
52878;SDS011;38747;53.140;6.498;2022-11-14T07:03:18;47.17;;;20.02;;
52878;SDS011;38747;53.140;6.498;2022-11-14T07:05:44;44.60;;;20.17;;
52878;SDS011;38747;53.140;6.498;2022-11-14T07:08:10;49.17;;;21.80;;
52878;SDS011;38747;53.140;6.498;2022-11-14T07:10:36;49.17;;;21.85;;
52878;SDS011;38747;53.140;6.498;2022-11-14T07:13:02;44.03;;;20.53;;
52878;SDS011;38747;53.140;6.498;2022-11-14T07:15:27;43.38;;;20.10;;
52878;SDS011;38747;53.140;6.498;2022-11-14T07:17:53;49.78;;;20.52;;
52878;SDS011;38747;53.140;6.498;2022-11-14T07:20:19;44.57;;;20.77;;
52878;SDS011;38747;53.140;6.498;2022-11-14T07:22:45;48.80;;;21.60;;
52878;SDS011;38747;53.140;6.498;2022-11-14T07:25:11;51.00;;;21.33;;
52878;SDS011;38747;53.140;6.498;2022-11-14T07:27:40;49.30;;;21.00;;
52878;SDS011;38747;53.140;6.498;2022-11-14T07:30:06;49.47;;;21.73;;
52878;SDS011;38747;53.140;6.498;2022-11-14T07:32:32;47.10;;;20.30;;
52878;SDS011;38747;53.140;6.498;2022-11-14T07:34:57;45.77;;;19.53;;
52878;SDS011;38747;53.140;6.498;2022-11-14T07:37:23;48.25;;;20.48;;
52878;SDS011;38747;53.140;6.498;2022-11-14T07:39:49;43.47;;;19.97;;
52878;SDS011;38747;53.140;6.498;2022-11-14T07:42:14;42.87;;;19.07;;
52878;SDS011;38747;53.140;6.498;2022-11-14T07:44:40;43.78;;;20.17;;
52878;SDS011;38747;53.140;6.498;2022-11-14T07:47:05;47.90;;;20.57;;
52878;SDS011;38747;53.140;6.498;2022-11-14T07:49:31;50.05;;;21.48;;
52878;SDS011;38747;53.140;6.498;2022-11-14T07:51:58;47.08;;;20.90;;
52878;SDS011;38747;53.140;6.498;2022-11-14T07:54:24;48.10;;;20.87;;
52878;SDS011;38747;53.140;6.498;2022-11-14T07:56:49;46.95;;;20.27;;
52878;SDS011;38747;53.140;6.498;2022-11-14T07:59:15;48.40;;;22.07;;
52878;SDS011;38747;53.140;6.498;2022-11-14T08:01:41;44.25;;;19.92;;
52878;SDS011;38747;53.140;6.498;2022-11-14T08:04:06;46.53;;;21.23;;
52878;SDS011;38747;53.140;6.498;2022-11-14T08:06:32;51.55;;;20.38;;
52878;SDS011;38747;53.140;6.498;2022-11-14T08:08:58;49.30;;;20.90;;
52878;SDS011;38747;53.140;6.498;2022-11-14T08:11:23;50.13;;;21.20;;
52878;SDS011;38747;53.140;6.498;2022-11-14T08:14:07;49.10;;;21.35;;
52878;SDS011;38747;53.140;6.498;2022-11-14T08:16:33;52.10;;;22.02;;
52878;SDS011;38747;53.140;6.498;2022-11-14T08:18:59;48.00;;;20.57;;
52878;SDS011;38747;53.140;6.498;2022-11-14T08:21:25;51.53;;;21.67;;
52878;SDS011;38747;53.140;6.498;2022-11-14T08:23:50;46.40;;;21.17;;
52878;SDS011;38747;53.140;6.498;2022-11-14T08:26:16;49.38;;;21.23;;
52878;SDS011;38747;53.140;6.498;2022-11-14T08:28:41;45.47;;;20.13;;
52878;SDS011;38747;53.140;6.498;2022-11-14T08:31:07;43.53;;;19.67;;
52878;SDS011;38747;53.140;6.498;2022-11-14T08:33:34;47.80;;;19.80;;
52878;SDS011;38747;53.140;6.498;2022-11-14T08:36:03;51.23;;;21.27;;
52878;SDS011;38747;53.140;6.498;2022-11-14T08:38:30;49.15;;;21.17;;
52878;SDS011;38747;53.140;6.498;2022-11-14T08:40:57;48.22;;;20.95;;
52878;SDS011;38747;53.140;6.498;2022-11-14T08:43:23;45.60;;;19.80;;
52878;SDS011;38747;53.140;6.498;2022-11-14T08:45:49;48.42;;;21.33;;
52878;SDS011;38747;53.140;6.498;2022-11-14T08:48:15;49.90;;;21.58;;
52878;SDS011;38747;53.140;6.498;2022-11-14T08:50:40;44.70;;;20.17;;
52878;SDS011;38747;53.140;6.498;2022-11-14T08:53:06;46.15;;;21.52;;
52878;SDS011;38747;53.140;6.498;2022-11-14T08:55:31;45.23;;;20.47;;
52878;SDS011;38747;53.140;6.498;2022-11-14T08:57:57;44.70;;;21.10;;
52878;SDS011;38747;53.140;6.498;2022-11-14T09:00:23;43.57;;;20.13;;
52878;SDS011;38747;53.140;6.498;2022-11-14T09:02:48;44.95;;;21.85;;
52878;SDS011;38747;53.140;6.498;2022-11-14T09:05:14;44.97;;;20.33;;
52878;SDS011;38747;53.140;6.498;2022-11-14T09:07:40;48.58;;;20.98;;
52878;SDS011;38747;53.140;6.498;2022-11-14T09:10:06;46.17;;;20.87;;
52878;SDS011;38747;53.140;6.498;2022-11-14T09:12:32;41.58;;;20.25;;
52878;SDS011;38747;53.140;6.498;2022-11-14T09:14:58;42.63;;;20.65;;
52878;SDS011;38747;53.140;6.498;2022-11-14T09:17:23;42.43;;;19.93;;
52878;SDS011;38747;53.140;6.498;2022-11-14T09:19:49;45.60;;;20.90;;
52878;SDS011;38747;53.140;6.498;2022-11-14T09:22:15;41.90;;;19.93;;
52878;SDS011;38747;53.140;6.498;2022-11-14T09:24:41;45.95;;;20.88;;
52878;SDS011;38747;53.140;6.498;2022-11-14T09:27:07;44.03;;;20.73;;
52878;SDS011;38747;53.140;6.498;2022-11-14T09:29:32;42.70;;;20.27;;
52878;SDS011;38747;53.140;6.498;2022-11-14T09:31:58;43.28;;;19.73;;
52878;SDS011;38747;53.140;6.498;2022-11-14T09:34:24;43.60;;;20.13;;
52878;SDS011;38747;53.140;6.498;2022-11-14T09:36:49;42.40;;;20.52;;
52878;SDS011;38747;53.140;6.498;2022-11-14T09:39:15;41.43;;;20.50;;
52878;SDS011;38747;53.140;6.498;2022-11-14T09:44:36;41.13;;;19.05;;
52878;SDS011;38747;53.140;6.498;2022-11-14T09:47:09;44.17;;;20.17;;
52878;SDS011;38747;53.140;6.498;2022-11-14T09:49:41;44.90;;;20.88;;
52878;SDS011;38747;53.140;6.498;2022-11-14T09:52:13;44.67;;;21.25;;
52878;SDS011;38747;53.140;6.498;2022-11-14T09:55:08;42.72;;;20.77;;
52878;SDS011;38747;53.140;6.498;2022-11-14T09:57:41;43.63;;;21.42;;
52878;SDS011;38747;53.140;6.498;2022-11-14T10:00:14;44.97;;;21.23;;
52878;SDS011;38747;53.140;6.498;2022-11-14T10:02:45;42.67;;;20.90;;
52878;SDS011;38747;53.140;6.498;2022-11-14T10:08:19;42.88;;;19.98;;
52878;SDS011;38747;53.140;6.498;2022-11-14T10:11:10;40.17;;;20.23;;
52878;SDS011;38747;53.140;6.498;2022-11-14T10:16:29;41.63;;;20.35;;
52878;SDS011;38747;53.140;6.498;2022-11-14T10:27:35;42.07;;;19.77;;
52878;SDS011;38747;53.140;6.498;2022-11-14T10:30:21;37.50;;;19.08;;
52878;SDS011;38747;53.140;6.498;2022-11-14T10:35:29;41.75;;;20.27;;
52878;SDS011;38747;53.140;6.498;2022-11-14T10:38:01;43.23;;;20.60;;
52878;SDS011;38747;53.140;6.498;2022-11-14T10:40:37;40.03;;;19.77;;
52878;SDS011;38747;53.140;6.498;2022-11-14T10:43:23;38.83;;;18.70;;
52878;SDS011;38747;53.140;6.498;2022-11-14T10:45:56;38.97;;;19.77;;
52878;SDS011;38747;53.140;6.498;2022-11-14T10:48:44;42.55;;;19.42;;
52878;SDS011;38747;53.140;6.498;2022-11-14T10:56:49;38.47;;;19.42;;
52878;SDS011;38747;53.140;6.498;2022-11-14T10:59:16;42.67;;;20.90;;
52878;SDS011;38747;53.140;6.498;2022-11-14T11:01:43;43.60;;;20.77;;
52878;SDS011;38747;53.140;6.498;2022-11-14T11:07:18;38.97;;;20.30;;
52878;SDS011;38747;53.140;6.498;2022-11-14T11:10:02;40.33;;;20.58;;
52878;SDS011;38747;53.140;6.498;2022-11-14T11:12:51;40.75;;;20.13;;
52878;SDS011;38747;53.140;6.498;2022-11-14T11:15:21;39.83;;;20.50;;
52878;SDS011;38747;53.140;6.498;2022-11-14T11:18:56;40.10;;;20.07;;
52878;SDS011;38747;53.140;6.498;2022-11-14T11:23:29;39.78;;;18.80;;
52878;SDS011;38747;53.140;6.498;2022-11-14T11:25:59;34.97;;;19.07;;
52878;SDS011;38747;53.140;6.498;2022-11-14T11:28:32;35.28;;;17.90;;
52878;SDS011;38747;53.140;6.498;2022-11-14T11:31:08;36.00;;;19.02;;
52878;SDS011;38747;53.140;6.498;2022-11-14T11:33:36;36.17;;;18.75;;
52878;SDS011;38747;53.140;6.498;2022-11-14T11:36:04;37.03;;;18.30;;
52878;SDS011;38747;53.140;6.498;2022-11-14T11:38:36;36.67;;;18.20;;
52878;SDS011;38747;53.140;6.498;2022-11-14T11:41:04;34.75;;;17.80;;
52878;SDS011;38747;53.140;6.498;2022-11-14T11:43:53;34.45;;;18.10;;
52878;SDS011;38747;53.140;6.498;2022-11-14T11:49:05;37.97;;;17.98;;
52878;SDS011;38747;53.140;6.498;2022-11-14T11:51:44;35.60;;;16.97;;
52878;SDS011;38747;53.140;6.498;2022-11-14T11:54:17;34.80;;;17.88;;
52878;SDS011;38747;53.140;6.498;2022-11-14T11:56:47;33.75;;;17.98;;
52878;SDS011;38747;53.140;6.498;2022-11-14T12:00:00;35.10;;;18.20;;
52878;SDS011;38747;53.140;6.498;2022-11-14T12:02:16;34.80;;;17.60;;
52878;SDS011;38747;53.140;6.498;2022-11-14T12:04:46;31.97;;;17.50;;
52878;SDS011;38747;53.140;6.498;2022-11-14T12:07:18;37.22;;;19.00;;
52878;SDS011;38747;53.140;6.498;2022-11-14T12:09:48;34.70;;;18.55;;
52878;SDS011;38747;53.140;6.498;2022-11-14T12:20:43;33.97;;;17.50;;
52878;SDS011;38747;53.140;6.498;2022-11-14T12:32:02;38.03;;;18.07;;
52878;SDS011;38747;53.140;6.498;2022-11-14T12:34:33;33.42;;;17.38;;
52878;SDS011;38747;53.140;6.498;2022-11-14T12:37:13;36.97;;;18.83;;
52878;SDS011;38747;53.140;6.498;2022-11-14T12:40:05;35.83;;;17.48;;
52878;SDS011;38747;53.140;6.498;2022-11-14T12:42:32;36.90;;;17.50;;
52878;SDS011;38747;53.140;6.498;2022-11-14T12:44:59;35.50;;;17.40;;
52878;SDS011;38747;53.140;6.498;2022-11-14T12:47:25;34.60;;;17.63;;
52878;SDS011;38747;53.140;6.498;2022-11-14T12:55:18;32.58;;;17.90;;
52878;SDS011;38747;53.140;6.498;2022-11-14T12:57:54;34.70;;;18.45;;
52878;SDS011;38747;53.140;6.498;2022-11-14T13:00:25;34.90;;;18.70;;
52878;SDS011;38747;53.140;6.498;2022-11-14T13:08:38;35.47;;;18.35;;
52878;SDS011;38747;53.140;6.498;2022-11-14T13:11:32;37.35;;;18.33;;
52878;SDS011;38747;53.140;6.498;2022-11-14T13:14:18;35.75;;;18.35;;
52878;SDS011;38747;53.140;6.498;2022-11-14T13:28:48;33.50;;;17.17;;
52878;SDS011;38747;53.140;6.498;2022-11-14T13:41:48;32.00;;;17.20;;
52878;SDS011;38747;53.140;6.498;2022-11-14T13:44:30;34.42;;;17.70;;
52878;SDS011;38747;53.140;6.498;2022-11-14T13:50:13;34.33;;;17.60;;
52878;SDS011;38747;53.140;6.498;2022-11-14T13:52:44;32.27;;;17.20;;
52878;SDS011;38747;53.140;6.498;2022-11-14T14:01:00;32.63;;;16.98;;
52878;SDS011;38747;53.140;6.498;2022-11-14T14:03:45;33.20;;;17.38;;
52878;SDS011;38747;53.140;6.498;2022-11-14T14:06:30;31.80;;;16.17;;
52878;SDS011;38747;53.140;6.498;2022-11-14T14:17:30;32.25;;;17.20;;
52878;SDS011;38747;53.140;6.498;2022-11-14T14:20:14;36.40;;;17.30;;
52878;SDS011;38747;53.140;6.498;2022-11-14T14:33:47;28.35;;;15.05;;
52878;SDS011;38747;53.140;6.498;2022-11-14T14:36:19;30.75;;;14.93;;
52878;SDS011;38747;53.140;6.498;2022-11-14T14:38:49;29.65;;;15.18;;
52878;SDS011;38747;53.140;6.498;2022-11-14T14:41:30;28.03;;;14.90;;
52878;SDS011;38747;53.140;6.498;2022-11-14T14:43:56;30.17;;;15.30;;
52878;SDS011;38747;53.140;6.498;2022-11-14T14:46:30;28.83;;;15.05;;
52878;SDS011;38747;53.140;6.498;2022-11-14T14:48:58;28.80;;;14.63;;
52878;SDS011;38747;53.140;6.498;2022-11-14T14:51:30;29.70;;;15.02;;
52878;SDS011;38747;53.140;6.498;2022-11-14T14:53:58;29.37;;;15.83;;
52878;SDS011;38747;53.140;6.498;2022-11-14T14:56:25;30.48;;;15.65;;
52878;SDS011;38747;53.140;6.498;2022-11-14T14:58:54;31.63;;;15.75;;
52878;SDS011;38747;53.140;6.498;2022-11-14T15:01:30;28.40;;;15.18;;
52878;SDS011;38747;53.140;6.498;2022-11-14T15:04:07;27.83;;;14.40;;
52878;SDS011;38747;53.140;6.498;2022-11-14T15:06:38;28.07;;;15.00;;
52878;SDS011;38747;53.140;6.498;2022-11-14T15:09:08;28.92;;;15.43;;
52878;SDS011;38747;53.140;6.498;2022-11-14T15:11:39;27.30;;;14.88;;
52878;SDS011;38747;53.140;6.498;2022-11-14T15:14:18;27.98;;;14.77;;
52878;SDS011;38747;53.140;6.498;2022-11-14T15:16:47;29.42;;;14.70;;
52878;SDS011;38747;53.140;6.498;2022-11-14T15:19:16;28.37;;;15.03;;
52878;SDS011;38747;53.140;6.498;2022-11-14T15:21:45;26.40;;;13.75;;
52878;SDS011;38747;53.140;6.498;2022-11-14T15:24:34;26.55;;;14.23;;
52878;SDS011;38747;53.140;6.498;2022-11-14T15:27:04;28.83;;;14.90;;
52878;SDS011;38747;53.140;6.498;2022-11-14T15:29:38;30.47;;;15.30;;
52878;SDS011;38747;53.140;6.498;2022-11-14T15:32:18;25.50;;;14.20;;
52878;SDS011;38747;53.140;6.498;2022-11-14T15:37:58;27.05;;;14.38;;
52878;SDS011;38747;53.140;6.498;2022-11-14T15:40:38;27.58;;;14.20;;
52878;SDS011;38747;53.140;6.498;2022-11-14T15:46:27;28.30;;;15.38;;
52878;SDS011;38747;53.140;6.498;2022-11-14T15:48:53;26.83;;;14.63;;
52878;SDS011;38747;53.140;6.498;2022-11-14T15:54:21;26.92;;;14.48;;
52878;SDS011;38747;53.140;6.498;2022-11-14T15:56:52;26.50;;;14.37;;
52878;SDS011;38747;53.140;6.498;2022-11-14T15:59:19;26.23;;;13.25;;
52878;SDS011;38747;53.140;6.498;2022-11-14T16:01:46;28.10;;;15.23;;
52878;SDS011;38747;53.140;6.498;2022-11-14T16:04:18;26.63;;;15.15;;
52878;SDS011;38747;53.140;6.498;2022-11-14T16:06:45;28.67;;;14.57;;
52878;SDS011;38747;53.140;6.498;2022-11-14T16:09:15;27.92;;;16.30;;
52878;SDS011;38747;53.140;6.498;2022-11-14T16:11:43;26.25;;;15.38;;
52878;SDS011;38747;53.140;6.498;2022-11-14T16:14:09;26.88;;;14.70;;
52878;SDS011;38747;53.140;6.498;2022-11-14T16:16:35;26.33;;;14.20;;
52878;SDS011;38747;53.140;6.498;2022-11-14T16:19:05;23.17;;;13.50;;
52878;SDS011;38747;53.140;6.498;2022-11-14T16:21:31;27.10;;;14.82;;
52878;SDS011;38747;53.140;6.498;2022-11-14T16:23:57;30.17;;;14.65;;
52878;SDS011;38747;53.140;6.498;2022-11-14T16:26:23;26.57;;;15.13;;
52878;SDS011;38747;53.140;6.498;2022-11-14T16:28:52;25.02;;;13.68;;
52878;SDS011;38747;53.140;6.498;2022-11-14T16:31:18;24.42;;;13.60;;
52878;SDS011;38747;53.140;6.498;2022-11-14T16:33:44;25.85;;;13.70;;
52878;SDS011;38747;53.140;6.498;2022-11-14T16:36:10;22.57;;;13.23;;
52878;SDS011;38747;53.140;6.498;2022-11-14T16:38:36;26.13;;;12.75;;